Terminal Aerodrome Forecast
Issued by NWS Twin Cities, MN

Home | Current Version | Previous Version | Text Only | Print | Product List | Glossary Off
Versions: 1 2 3 4 5 6 7 8 9 10 11 12 13 14 15 16 17 18 19 20 21 22 23 24 25

823
FTUS43 KMPX 212100 AAA
TAFMSP
TAF AMD
KMSP 212100Z 2121/2224 VRB04KT P6SM SCT200
     FM220100 14003KT P6SM SCT100 BKN200
     FM221500 14006KT P6SM BKN200=

USA.gov is the U.S. government's official web portal to all federal, state and local government web resources and services.